sensor_id;sensor_type;location;lat;lon;timestamp;P1;durP1;ratioP1;P2;durP2;ratioP2
28068;SDS011;15382;47.578;8.086;2023-02-15T00:05:52;104.65;;;25.45;;
28068;SDS011;15382;47.578;8.086;2023-02-15T00:16:02;119.95;;;25.30;;
28068;SDS011;15382;47.578;8.086;2023-02-15T00:26:05;291.13;;;35.72;;
28068;SDS011;15382;47.578;8.086;2023-02-15T00:36:08;121.72;;;24.65;;
28068;SDS011;15382;47.578;8.086;2023-02-15T00:46:12;74.72;;;22.90;;
28068;SDS011;15382;47.578;8.086;2023-02-15T00:56:13;160.73;;;29.23;;
28068;SDS011;15382;47.578;8.086;2023-02-15T01:06:14;100.05;;;26.15;;
28068;SDS011;15382;47.578;8.086;2023-02-15T01:16:17;109.93;;;24.27;;
28068;SDS011;15382;47.578;8.086;2023-02-15T01:26:20;118.15;;;23.40;;
28068;SDS011;15382;47.578;8.086;2023-02-15T01:36:21;150.50;;;25.52;;
28068;SDS011;15382;47.578;8.086;2023-02-15T01:46:24;148.00;;;24.92;;
28068;SDS011;15382;47.578;8.086;2023-02-15T01:56:38;175.98;;;24.52;;
28068;SDS011;15382;47.578;8.086;2023-02-15T02:06:40;221.07;;;26.40;;
28068;SDS011;15382;47.578;8.086;2023-02-15T02:16:46;223.10;;;23.55;;
28068;SDS011;15382;47.578;8.086;2023-02-15T02:27:12;69.68;;;20.23;;
28068;SDS011;15382;47.578;8.086;2023-02-15T02:37:24;103.03;;;21.38;;
28068;SDS011;15382;47.578;8.086;2023-02-15T02:48:01;65.78;;;21.08;;
28068;SDS011;15382;47.578;8.086;2023-02-15T03:08:37;122.90;;;21.35;;
28068;SDS011;15382;47.578;8.086;2023-02-15T03:18:51;92.70;;;20.17;;
28068;SDS011;15382;47.578;8.086;2023-02-15T03:28:58;174.02;;;24.98;;
28068;SDS011;15382;47.578;8.086;2023-02-15T03:49:21;91.57;;;23.05;;
28068;SDS011;15382;47.578;8.086;2023-02-15T03:59:30;90.35;;;24.25;;
28068;SDS011;15382;47.578;8.086;2023-02-15T04:09:49;101.85;;;21.23;;
28068;SDS011;15382;47.578;8.086;2023-02-15T04:20:09;212.63;;;28.75;;
28068;SDS011;15382;47.578;8.086;2023-02-15T04:30:28;149.60;;;25.67;;
28068;SDS011;15382;47.578;8.086;2023-02-15T04:40:29;132.60;;;23.55;;
28068;SDS011;15382;47.578;8.086;2023-02-15T04:50:30;69.43;;;20.40;;
28068;SDS011;15382;47.578;8.086;2023-02-15T05:00:31;84.85;;;21.17;;
28068;SDS011;15382;47.578;8.086;2023-02-15T05:10:31;112.05;;;23.45;;
28068;SDS011;15382;47.578;8.086;2023-02-15T05:20:32;90.03;;;21.40;;
28068;SDS011;15382;47.578;8.086;2023-02-15T05:30:33;89.63;;;23.98;;
28068;SDS011;15382;47.578;8.086;2023-02-15T05:40:34;93.18;;;23.45;;
28068;SDS011;15382;47.578;8.086;2023-02-15T05:50:35;82.40;;;25.60;;
28068;SDS011;15382;47.578;8.086;2023-02-15T06:00:36;78.70;;;22.63;;
28068;SDS011;15382;47.578;8.086;2023-02-15T06:10:37;84.10;;;23.83;;
28068;SDS011;15382;47.578;8.086;2023-02-15T06:20:37;101.00;;;24.40;;
28068;SDS011;15382;47.578;8.086;2023-02-15T06:30:38;79.50;;;22.15;;
28068;SDS011;15382;47.578;8.086;2023-02-15T06:40:39;92.05;;;23.42;;
28068;SDS011;15382;47.578;8.086;2023-02-15T06:50:40;70.78;;;21.35;;
28068;SDS011;15382;47.578;8.086;2023-02-15T07:00:41;110.70;;;22.58;;
28068;SDS011;15382;47.578;8.086;2023-02-15T07:10:45;67.43;;;19.67;;
28068;SDS011;15382;47.578;8.086;2023-02-15T07:20:46;110.53;;;22.65;;
28068;SDS011;15382;47.578;8.086;2023-02-15T07:30:47;107.43;;;25.23;;
28068;SDS011;15382;47.578;8.086;2023-02-15T07:40:48;118.18;;;23.20;;
28068;SDS011;15382;47.578;8.086;2023-02-15T07:50:48;98.90;;;22.33;;
28068;SDS011;15382;47.578;8.086;2023-02-15T08:00:49;98.88;;;25.42;;
28068;SDS011;15382;47.578;8.086;2023-02-15T08:11:05;109.68;;;28.13;;
28068;SDS011;15382;47.578;8.086;2023-02-15T08:21:26;109.63;;;26.10;;
28068;SDS011;15382;47.578;8.086;2023-02-15T08:31:28;152.90;;;25.80;;
28068;SDS011;15382;47.578;8.086;2023-02-15T08:41:30;71.60;;;24.17;;
28068;SDS011;15382;47.578;8.086;2023-02-15T08:51:34;128.20;;;25.17;;
28068;SDS011;15382;47.578;8.086;2023-02-15T09:01:36;76.18;;;24.38;;
28068;SDS011;15382;47.578;8.086;2023-02-15T09:11:38;90.38;;;24.15;;
28068;SDS011;15382;47.578;8.086;2023-02-15T09:21:42;73.70;;;23.70;;
28068;SDS011;15382;47.578;8.086;2023-02-15T09:31:44;68.20;;;22.73;;
28068;SDS011;15382;47.578;8.086;2023-02-15T10:13:00;62.33;;;23.23;;
28068;SDS011;15382;47.578;8.086;2023-02-15T10:23:22;62.83;;;23.58;;
28068;SDS011;15382;47.578;8.086;2023-02-15T10:53:56;39.83;;;16.33;;
28068;SDS011;15382;47.578;8.086;2023-02-15T11:14:14;38.65;;;16.67;;
28068;SDS011;15382;47.578;8.086;2023-02-15T11:24:20;45.20;;;18.98;;
28068;SDS011;15382;47.578;8.086;2023-02-15T11:34:31;45.70;;;18.67;;
28068;SDS011;15382;47.578;8.086;2023-02-15T11:55:09;36.78;;;16.70;;
28068;SDS011;15382;47.578;8.086;2023-02-15T12:05:17;42.25;;;17.33;;
28068;SDS011;15382;47.578;8.086;2023-02-15T12:15:29;39.95;;;17.70;;
28068;SDS011;15382;47.578;8.086;2023-02-15T12:36:08;30.92;;;16.83;;
28068;SDS011;15382;47.578;8.086;2023-02-15T12:46:14;33.50;;;16.65;;
28068;SDS011;15382;47.578;8.086;2023-02-15T12:56:26;32.05;;;16.55;;
28068;SDS011;15382;47.578;8.086;2023-02-15T13:06:28;28.10;;;15.50;;
28068;SDS011;15382;47.578;8.086;2023-02-15T13:26:39;29.77;;;15.55;;
28068;SDS011;15382;47.578;8.086;2023-02-15T13:57:54;30.40;;;16.30;;
28068;SDS011;15382;47.578;8.086;2023-02-15T14:50:12;34.17;;;17.65;;
28068;SDS011;15382;47.578;8.086;2023-02-15T15:00:36;34.05;;;16.70;;
28068;SDS011;15382;47.578;8.086;2023-02-15T15:10:40;37.10;;;17.65;;
28068;SDS011;15382;47.578;8.086;2023-02-15T15:20:47;33.38;;;16.92;;
28068;SDS011;15382;47.578;8.086;2023-02-15T15:30:49;35.20;;;17.27;;
28068;SDS011;15382;47.578;8.086;2023-02-15T15:51:02;37.30;;;17.85;;
28068;SDS011;15382;47.578;8.086;2023-02-15T16:01:13;35.35;;;17.00;;
28068;SDS011;15382;47.578;8.086;2023-02-15T16:11:19;32.33;;;17.08;;
28068;SDS011;15382;47.578;8.086;2023-02-15T16:21:28;36.45;;;18.05;;
28068;SDS011;15382;47.578;8.086;2023-02-15T16:31:32;33.00;;;17.35;;
28068;SDS011;15382;47.578;8.086;2023-02-15T16:41:33;42.97;;;18.92;;
28068;SDS011;15382;47.578;8.086;2023-02-15T17:01:36;43.05;;;19.48;;
28068;SDS011;15382;47.578;8.086;2023-02-15T17:11:40;43.65;;;20.20;;
28068;SDS011;15382;47.578;8.086;2023-02-15T17:21:45;43.20;;;20.27;;
28068;SDS011;15382;47.578;8.086;2023-02-15T17:31:49;45.33;;;22.30;;
28068;SDS011;15382;47.578;8.086;2023-02-15T17:41:51;45.50;;;21.38;;
28068;SDS011;15382;47.578;8.086;2023-02-15T17:51:53;45.65;;;20.55;;
28068;SDS011;15382;47.578;8.086;2023-02-15T18:01:53;45.05;;;19.67;;
28068;SDS011;15382;47.578;8.086;2023-02-15T18:12:20;42.22;;;17.02;;
28068;SDS011;15382;47.578;8.086;2023-02-15T18:22:22;37.83;;;15.93;;
28068;SDS011;15382;47.578;8.086;2023-02-15T18:32:28;30.55;;;14.45;;
28068;SDS011;15382;47.578;8.086;2023-02-15T18:42:33;33.55;;;14.23;;
28068;SDS011;15382;47.578;8.086;2023-02-15T18:52:36;31.55;;;13.88;;
28068;SDS011;15382;47.578;8.086;2023-02-15T19:02:37;26.02;;;11.75;;
28068;SDS011;15382;47.578;8.086;2023-02-15T19:12:38;24.15;;;11.23;;
28068;SDS011;15382;47.578;8.086;2023-02-15T19:22:39;27.35;;;11.73;;
28068;SDS011;15382;47.578;8.086;2023-02-15T19:32:40;24.08;;;12.20;;
28068;SDS011;15382;47.578;8.086;2023-02-15T19:42:41;35.13;;;14.38;;
28068;SDS011;15382;47.578;8.086;2023-02-15T19:52:42;34.15;;;13.80;;
28068;SDS011;15382;47.578;8.086;2023-02-15T20:02:44;36.63;;;14.77;;
28068;SDS011;15382;47.578;8.086;2023-02-15T20:12:45;42.55;;;17.42;;
28068;SDS011;15382;47.578;8.086;2023-02-15T20:22:47;34.05;;;14.85;;
28068;SDS011;15382;47.578;8.086;2023-02-15T20:32:50;38.17;;;16.10;;
28068;SDS011;15382;47.578;8.086;2023-02-15T20:42:51;39.78;;;16.83;;
28068;SDS011;15382;47.578;8.086;2023-02-15T20:52:52;36.10;;;15.95;;
28068;SDS011;15382;47.578;8.086;2023-02-15T21:02:55;57.40;;;20.92;;
28068;SDS011;15382;47.578;8.086;2023-02-15T21:12:58;49.72;;;22.45;;
28068;SDS011;15382;47.578;8.086;2023-02-15T21:23:03;43.30;;;19.88;;
28068;SDS011;15382;47.578;8.086;2023-02-15T21:33:05;39.72;;;16.58;;
28068;SDS011;15382;47.578;8.086;2023-02-15T21:43:12;45.10;;;19.05;;
28068;SDS011;15382;47.578;8.086;2023-02-15T21:53:33;49.95;;;20.20;;
28068;SDS011;15382;47.578;8.086;2023-02-15T22:03:47;54.55;;;23.77;;
28068;SDS011;15382;47.578;8.086;2023-02-15T22:13:49;67.38;;;26.63;;
28068;SDS011;15382;47.578;8.086;2023-02-15T22:23:50;65.07;;;25.35;;
28068;SDS011;15382;47.578;8.086;2023-02-15T22:33:50;57.65;;;24.83;;
28068;SDS011;15382;47.578;8.086;2023-02-15T22:43:53;56.13;;;24.33;;
28068;SDS011;15382;47.578;8.086;2023-02-15T22:53:55;58.00;;;24.58;;
28068;SDS011;15382;47.578;8.086;2023-02-15T23:03:56;58.25;;;24.52;;
28068;SDS011;15382;47.578;8.086;2023-02-15T23:13:56;67.68;;;26.05;;
28068;SDS011;15382;47.578;8.086;2023-02-15T23:23:59;58.00;;;24.52;;
28068;SDS011;15382;47.578;8.086;2023-02-15T23:44:25;42.55;;;17.60;;
28068;SDS011;15382;47.578;8.086;2023-02-15T23:54:26;34.47;;;15.10;;
